createdAt,value
2019-01-24T00:01:51.908Z,-0.96
2019-01-24T00:07:06.900Z,-1.08
2019-01-24T00:12:09.571Z,-1.19
2019-01-24T00:17:31.740Z,-1.27
2019-01-24T00:22:53.920Z,-2.26
2019-01-24T00:28:16.134Z,-1.39
2019-01-24T00:33:38.408Z,-1.21
2019-01-24T00:39:00.608Z,-3.67
2019-01-24T00:44:22.772Z,-1.18
2019-01-24T00:49:44.945Z,-1.24
2019-01-24T00:55:08.903Z,-0.98
2019-01-24T01:00:31.090Z,-1.32
2019-01-24T01:05:53.264Z,-1.30
2019-01-24T01:11:08.327Z,-2.68
2019-01-24T01:16:11.021Z,-1.11
2019-01-24T01:21:13.686Z,-1.32
2019-01-24T01:26:35.882Z,-1.52
2019-01-24T01:31:58.057Z,-1.49
2019-01-24T01:37:20.231Z,-3.48
2019-01-24T01:42:42.422Z,-1.81
2019-01-24T01:47:45.195Z,-1.74
2019-01-24T01:53:07.371Z,-1.83
2019-01-24T01:58:29.537Z,-2.59
2019-01-24T02:03:51.704Z,-1.68
2019-01-24T02:09:07.911Z,-3.93
2019-01-24T02:14:30.092Z,-1.88
2019-01-24T02:19:52.265Z,-1.69
2019-01-24T02:25:14.438Z,-1.71
2019-01-24T02:30:36.635Z,-1.61
2019-01-24T02:35:39.314Z,-1.51
2019-01-24T02:40:41.987Z,-1.41
2019-01-24T02:46:04.179Z,-1.34
2019-01-24T02:51:26.364Z,-4.32
2019-01-24T02:56:48.543Z,-1.68
2019-01-24T03:02:10.723Z,-1.53
2019-01-24T03:07:33.662Z,-1.48
2019-01-24T03:12:55.835Z,-2.95
2019-01-24T03:18:18.013Z,-1.92
2019-01-24T03:23:40.193Z,-4.74
2019-01-24T03:29:02.401Z,-2.12
2019-01-24T03:34:05.117Z,-2.24
2019-01-24T03:39:27.301Z,-2.03
2019-01-24T03:44:29.980Z,-2.00
2019-01-24T03:49:52.149Z,-2.07
2019-01-24T03:55:15.681Z,-2.01
2019-01-24T04:00:21.299Z,-1.60
2019-01-24T04:05:43.492Z,-1.86
2019-01-24T04:10:59.287Z,-1.95
2019-01-24T04:16:21.465Z,-2.27
2019-01-24T04:21:43.637Z,-4.87
2019-01-24T04:27:05.807Z,-4.07
2019-01-24T04:32:27.984Z,-2.11
2019-01-24T04:37:50.158Z,-1.87
2019-01-24T04:43:12.335Z,-1.56
2019-01-24T04:48:15.005Z,-2.50
2019-01-24T04:53:37.206Z,-1.27
2019-01-24T04:58:59.443Z,-1.34
2019-01-24T05:04:21.627Z,-1.18
2019-01-24T05:09:36.709Z,-3.15
2019-01-24T05:14:58.905Z,-0.99
2019-01-24T05:20:21.089Z,-1.01
2019-01-24T05:25:43.263Z,-2.53
2019-01-24T05:30:45.926Z,-0.96
2019-01-24T05:36:08.108Z,-0.91
2019-01-24T05:41:30.282Z,-3.41
2019-01-24T05:46:52.444Z,-2.61
2019-01-24T05:51:55.109Z,-1.00
2019-01-24T05:57:17.283Z,-0.81
2019-01-24T06:02:39.472Z,-0.73
2019-01-24T06:07:55.212Z,-0.88
2019-01-24T06:13:17.385Z,-0.86
2019-01-24T06:18:39.563Z,-1.07
2019-01-24T06:24:01.747Z,-1.24
2019-01-24T06:29:04.527Z,-1.14
2019-01-24T06:34:26.697Z,-0.96
2019-01-24T06:39:48.872Z,-0.84
2019-01-24T06:45:31.851Z,-2.20
2019-01-24T06:50:54.035Z,-0.89
2019-01-24T06:56:16.220Z,-0.95
2019-01-24T07:01:38.418Z,-2.80
2019-01-24T07:06:53.642Z,-0.95
2019-01-24T07:12:15.833Z,-0.99
2019-01-24T07:17:38.024Z,-0.99
2019-01-24T07:23:00.207Z,-0.89
2019-01-24T07:28:22.381Z,-0.85
2019-01-24T07:33:44.555Z,-2.79
2019-01-24T07:39:07.085Z,-0.76
2019-01-24T07:44:09.770Z,-0.73
2019-01-24T07:49:31.940Z,-0.66
2019-01-24T07:54:54.127Z,-2.97
2019-01-24T08:00:19.724Z,-0.69
2019-01-24T08:05:42.575Z,-0.48
2019-01-24T08:10:58.278Z,-0.40
2019-01-24T08:16:20.475Z,-1.46
2019-01-24T08:21:42.633Z,-0.27
2019-01-24T08:27:04.831Z,-0.34
2019-01-24T08:32:27.260Z,-0.23
2019-01-24T08:37:29.926Z,-0.17
2019-01-24T08:42:52.206Z,-0.13
2019-01-24T08:48:14.385Z,0.06
2019-01-24T08:53:36.589Z,0.14
2019-01-24T08:58:58.772Z,0.05
2019-01-24T09:04:20.950Z,0.02
2019-01-24T09:09:35.949Z,0.17
2019-01-24T09:14:58.117Z,0.29
2019-01-24T09:20:00.798Z,-1.42
2019-01-24T09:25:04.187Z,0.20
2019-01-24T09:30:11.028Z,0.14
2019-01-24T09:35:14.201Z,0.20
2019-01-24T09:40:38.428Z,0.22
2019-01-24T09:46:00.619Z,0.33
2019-01-24T09:51:22.811Z,0.29
2019-01-24T09:56:25.476Z,0.36
2019-01-24T10:01:28.147Z,0.50
2019-01-24T10:06:36.232Z,0.62
2019-01-24T10:11:35.396Z,0.72
2019-01-24T10:16:57.563Z,0.84
2019-01-24T10:22:00.246Z,0.80
2019-01-24T10:27:22.425Z,1.08
2019-01-24T10:32:44.813Z,1.26
2019-01-24T10:38:06.995Z,-0.48
2019-01-24T10:43:09.665Z,1.01
2019-01-24T10:48:12.348Z,0.69
2019-01-24T10:53:34.528Z,0.90
2019-01-24T10:58:56.701Z,-0.59
2019-01-24T11:04:18.908Z,1.45
2019-01-24T11:09:34.701Z,1.65
2019-01-24T11:14:56.876Z,1.59
2019-01-24T11:25:49.232Z,1.76
2019-01-24T11:31:11.413Z,1.40
2019-01-24T11:36:33.608Z,-0.11
2019-01-24T11:41:55.790Z,1.49
2019-01-24T11:47:17.966Z,1.41
2019-01-24T11:52:40.139Z,1.47
2019-01-24T11:58:02.307Z,1.51
2019-01-24T12:03:24.504Z,1.26
2019-01-24T12:08:40.205Z,1.27
2019-01-24T12:14:02.394Z,1.52
2019-01-24T12:19:24.618Z,1.17
2019-01-24T12:24:46.803Z,1.07
2019-01-24T12:30:12.825Z,-0.74
2019-01-24T12:35:35.171Z,1.50
2019-01-24T12:40:57.347Z,-1.09
2019-01-24T12:46:00.022Z,1.53
2019-01-24T12:51:02.781Z,1.43
2019-01-24T12:56:05.482Z,1.12
2019-01-24T13:01:08.157Z,0.89
2019-01-24T13:06:10.883Z,1.04
2019-01-24T13:11:26.173Z,1.48
2019-01-24T13:16:28.928Z,1.50
2019-01-24T13:21:51.111Z,1.30
2019-01-24T13:27:13.298Z,1.39
2019-01-24T13:32:35.473Z,0.40
2019-01-24T13:37:38.150Z,1.59
2019-01-24T13:43:01.033Z,1.54
2019-01-24T13:48:23.220Z,1.72
2019-01-24T13:53:45.420Z,1.70
2019-01-24T13:59:07.616Z,2.04
2019-01-24T14:04:33.651Z,0.21
2019-01-24T14:09:49.400Z,1.75
2019-01-24T14:15:33.556Z,1.55
2019-01-24T14:20:55.722Z,-0.50
2019-01-24T14:26:17.938Z,1.46
2019-01-24T14:31:20.677Z,1.37
2019-01-24T14:36:43.062Z,1.49
2019-01-24T14:41:45.736Z,1.50
2019-01-24T14:47:07.939Z,1.33
2019-01-24T14:52:30.244Z,1.31
2019-01-24T14:57:52.656Z,1.38
2019-01-24T15:02:55.553Z,-0.31
2019-01-24T15:08:10.993Z,1.29
2019-01-24T15:13:13.671Z,1.45
2019-01-24T15:18:16.342Z,1.36
2019-01-24T15:23:19.017Z,1.19
2019-01-24T15:28:21.915Z,1.18
2019-01-24T15:33:24.615Z,1.28
2019-01-24T15:38:47.269Z,1.35
2019-01-24T15:44:09.495Z,-0.67
2019-01-24T15:49:31.753Z,1.26
2019-01-24T15:54:54.114Z,1.09
2019-01-24T16:00:37.027Z,1.12
2019-01-24T16:05:59.218Z,1.13
2019-01-24T16:11:01.948Z,1.16
2019-01-24T16:16:24.112Z,1.13
2019-01-24T16:21:46.294Z,-0.67
2019-01-24T16:27:08.509Z,1.05
2019-01-24T16:32:30.803Z,0.07
2019-01-24T16:37:54.164Z,0.09
2019-01-24T16:43:16.386Z,0.51
2019-01-24T16:48:38.567Z,0.95
2019-01-24T16:54:00.741Z,0.96
2019-01-24T16:59:22.926Z,0.93
2019-01-24T17:04:45.099Z,0.82
2019-01-24T17:09:59.886Z,0.16
2019-01-24T17:15:22.064Z,0.73
2019-01-24T17:20:25.513Z,0.47
2019-01-24T17:25:47.689Z,0.72
2019-01-24T17:31:09.864Z,0.80
2019-01-24T17:36:32.048Z,-0.37
2019-01-24T17:41:54.228Z,0.83
2019-01-24T17:47:17.846Z,0.92
2019-01-24T17:52:40.086Z,0.93
2019-01-24T18:03:52.208Z,1.13
2019-01-24T18:09:07.987Z,1.16
2019-01-24T18:14:30.199Z,1.21
2019-01-24T18:19:52.371Z,1.18
2019-01-24T18:25:14.565Z,-0.54
2019-01-24T18:30:36.980Z,1.12
2019-01-24T18:35:39.650Z,1.26
2019-01-24T18:41:08.411Z,1.30
2019-01-24T18:46:26.111Z,-0.64
2019-01-24T18:51:48.308Z,1.39
2019-01-24T18:57:10.521Z,-0.11
2019-01-24T19:02:13.217Z,1.48
2019-01-24T19:07:28.441Z,1.48
2019-01-24T19:12:31.143Z,-0.42
2019-01-24T19:17:54.294Z,1.53
2019-01-24T19:29:06.713Z,1.44
2019-01-24T19:34:28.922Z,1.25
2019-01-24T19:39:31.622Z,-0.45
2019-01-24T19:44:53.812Z,1.27
2019-01-24T19:50:18.240Z,1.27
2019-01-24T19:55:40.797Z,1.27
2019-01-24T20:01:25.431Z,-0.70
2019-01-24T20:06:42.130Z,0.75
2019-01-24T20:12:04.468Z,1.09
2019-01-24T20:17:26.645Z,-0.18
2019-01-24T20:22:49.414Z,-1.60
2019-01-24T20:28:11.594Z,1.07
2019-01-24T20:33:33.788Z,-0.47
2019-01-24T20:38:55.951Z,-1.98
2019-01-24T20:43:58.641Z,0.83
2019-01-24T20:49:20.852Z,0.94
2019-01-24T20:54:43.074Z,1.02
2019-01-24T21:00:28.384Z,1.10
2019-01-24T21:05:31.056Z,1.16
2019-01-24T21:10:46.536Z,1.10
2019-01-24T21:16:08.731Z,0.05
2019-01-24T21:21:30.958Z,0.98
2019-01-24T21:26:53.152Z,0.93
2019-01-24T21:32:15.358Z,-0.94
2019-01-24T21:37:37.563Z,1.02
2019-01-24T21:42:59.747Z,-0.83
2019-01-24T21:48:21.932Z,1.18
2019-01-24T21:53:44.102Z,1.25
2019-01-24T21:59:06.301Z,0.10
2019-01-24T22:04:28.546Z,1.30
2019-01-24T22:09:31.314Z,1.28
2019-01-24T22:14:53.532Z,1.20
2019-01-24T22:20:15.968Z,1.13
2019-01-24T22:25:38.144Z,1.12
2019-01-24T22:31:00.564Z,1.19
2019-01-24T22:36:03.246Z,1.13
2019-01-24T22:41:25.429Z,1.08
2019-01-24T22:46:47.618Z,1.07
2019-01-24T22:52:09.801Z,1.08
2019-01-24T22:57:31.987Z,-0.84
2019-01-24T23:02:54.159Z,1.10
2019-01-24T23:08:10.789Z,1.09
2019-01-24T23:13:32.995Z,0.89
2019-01-24T23:18:55.230Z,1.01
2019-01-24T23:23:57.921Z,0.99
2019-01-24T23:29:00.645Z,0.92
2019-01-24T23:34:22.861Z,0.85
2019-01-24T23:39:51.360Z,0.84
2019-01-24T23:45:09.137Z,-0.93
2019-01-24T23:50:31.318Z,-0.88
2019-01-24T23:55:53.535Z,0.83
